Weather at Ann Arbor Municipal Airport

Public forecast

Using degrees Fahrenheit for public forecast. Weather courtesy of forecast.io.

Current aviation weather report (METAR) for Ann Arbor Municipal Airport

Retrieved 2021/03/04 04:53 UTC (40 minutes ago):

KARB 040453Z AUTO 35008KT 10SM CLR 03/M02 A3005 RMK AO2 SLP182 T00281022 401391050

Closest aviation forecast (TAF) to Ann Arbor Municipal Airport

Closest forecast is Willow Run Airport, 9.6 nm (17.8 km) E. Retrieved 2021-03-04 00:22 UTC (5 hours ago):

TAF KYIP 032320Z 0400/0424 35010KT P6SM SCT035 BKN050 FM040600 33008KT P6SM SCT028 BKN035 FM041300 32010KT P6SM SCT035 FM041800 35010KT P6SM FEW040